Time;durP1;ratioP1;P1;durP2;ratioP2;P2;SDS_P1;SDS_P2;PMS_P1;PMS_P2;Temp;Humidity;BMP_temperature;BMP_pressure;BME280_temperature;BME280_humidity;BME280_pressure;Samples;Min_cycle;Max_cycle;Signal;HPM_P1;HPM_P2
2023/06/02 00:02:21;;;;;;;6.25;1.70;;;;;;;;;;4975525;28;20379;-76
2023/06/02 00:04:46;;;;;;;8.57;1.90;;;;;;;;;;4978465;28;20120;-76
2023/06/02 00:07:12;;;;;;;4.28;1.60;;;;;;;;;;4974194;28;20132;-76
2023/06/02 00:09:40;;;;;;;3.95;1.90;;;;;;;;;;4975948;28;20030;-76
2023/06/02 00:12:07;;;;;;;4.18;1.77;;;;;;;;;;4978430;28;20033;-78
2023/06/02 00:14:33;;;;;;;9.50;2.88;;;;;;;;;;4991786;28;20029;-79
2023/06/02 00:17:02;;;;;;;7.25;2.22;;;;;;;;;;4971428;28;20109;-79
2023/06/02 00:19:30;;;;;;;6.10;2.05;;;;;;;;;;4975796;28;20042;-78
2023/06/02 00:22:05;;;;;;;5.40;1.70;;;;;;;;;;4973731;28;20026;-78
2023/06/02 00:24:31;;;;;;;9.93;2.10;;;;;;;;;;4992725;28;20026;-77
2023/06/02 00:26:57;;;;;;;7.30;2.00;;;;;;;;;;4992506;28;20386;-76
2023/06/02 00:29:22;;;;;;;7.40;1.90;;;;;;;;;;5006683;28;20030;-76
2023/06/02 00:31:48;;;;;;;6.05;2.05;;;;;;;;;;4995693;28;20084;-76
2023/06/02 00:34:13;;;;;;;10.10;2.15;;;;;;;;;;4995002;28;20030;-76
2023/06/02 00:36:39;;;;;;;4.68;1.73;;;;;;;;;;4993325;28;20034;-76
2023/06/02 00:39:04;;;;;;;7.40;2.20;;;;;;;;;;4974781;28;20034;-76
2023/06/02 00:41:30;;;;;;;6.78;2.70;;;;;;;;;;4992424;28;20026;-76
2023/06/02 00:43:56;;;;;;;7.43;1.80;;;;;;;;;;4975082;28;20065;-76
2023/06/02 00:46:22;;;;;;;7.00;1.90;;;;;;;;;;4991196;28;20033;-77
2023/06/02 00:48:49;;;;;;;7.40;2.47;;;;;;;;;;4970320;28;20117;-76
2023/06/02 00:51:16;;;;;;;7.28;2.00;;;;;;;;;;4974956;28;20033;-76
2023/06/02 00:53:43;;;;;;;6.15;1.83;;;;;;;;;;4978703;28;20117;-76
2023/06/02 00:56:12;;;;;;;6.38;2.30;;;;;;;;;;4994589;28;20035;-76
2023/06/02 00:58:38;;;;;;;5.90;2.08;;;;;;;;;;4968955;28;20088;-76
2023/06/02 01:01:08;;;;;;;6.68;1.73;;;;;;;;;;4975069;28;20081;-76
2023/06/02 01:03:35;;;;;;;9.30;2.15;;;;;;;;;;4971611;28;20462;-76
2023/06/02 01:06:02;;;;;;;6.75;1.70;;;;;;;;;;4983273;28;20065;-76
2023/06/02 01:08:29;;;;;;;4.60;1.80;;;;;;;;;;4976645;28;20073;-79
2023/06/02 01:10:55;;;;;;;6.88;2.33;;;;;;;;;;4993498;28;20033;-78
2023/06/02 01:13:21;;;;;;;4.95;1.83;;;;;;;;;;4975935;28;20113;-79
2023/06/02 01:15:47;;;;;;;7.40;2.08;;;;;;;;;;4993247;28;20740;-79
2023/06/02 01:18:14;;;;;;;6.13;2.10;;;;;;;;;;4993795;28;20105;-79
2023/06/02 01:20:44;;;;;;;6.32;2.08;;;;;;;;;;4978974;28;20029;-79
2023/06/02 01:23:15;;;;;;;6.80;2.20;;;;;;;;;;4976212;28;20471;-79
2023/06/02 01:25:41;;;;;;;5.95;2.10;;;;;;;;;;4980880;28;20121;-79
2023/06/02 01:28:07;;;;;;;7.28;2.22;;;;;;;;;;4992357;28;20109;-79
2023/06/02 01:30:33;;;;;;;6.95;2.00;;;;;;;;;;4997228;28;20030;-78
2023/06/02 01:33:34;;;;;;;6.25;2.08;;;;;;;;;;4988821;28;20030;-76
2023/06/02 01:35:59;;;;;;;5.65;1.90;;;;;;;;;;4917564;28;20066;-76
2023/06/02 01:38:27;;;;;;;7.57;2.10;;;;;;;;;;4972200;28;20060;-76
2023/06/02 01:40:54;;;;;;;6.68;2.22;;;;;;;;;;4973474;28;20456;-76
2023/06/02 01:43:19;;;;;;;5.75;1.88;;;;;;;;;;4990889;28;20553;-76
2023/06/02 01:45:45;;;;;;;7.28;2.20;;;;;;;;;;4971156;28;20026;-76
2023/06/02 01:48:12;;;;;;;9.63;2.47;;;;;;;;;;4978409;28;20026;-76
2023/06/02 01:50:38;;;;;;;6.40;2.17;;;;;;;;;;4972200;28;20034;-76
2023/06/02 01:53:04;;;;;;;8.35;2.35;;;;;;;;;;4972863;28;20220;-76
2023/06/02 01:55:31;;;;;;;8.35;2.10;;;;;;;;;;4988209;28;20084;-76
2023/06/02 01:57:57;;;;;;;8.35;2.47;;;;;;;;;;4993403;28;20061;-75
2023/06/02 02:00:22;;;;;;;8.57;2.35;;;;;;;;;;4966124;28;20054;-76
2023/06/02 02:02:48;;;;;;;9.20;2.55;;;;;;;;;;4990008;28;20023;-76
2023/06/02 02:05:13;;;;;;;6.97;2.20;;;;;;;;;;4988128;28;20033;-76
2023/06/02 02:07:41;;;;;;;8.02;2.67;;;;;;;;;;4994821;28;20022;-76
2023/06/02 02:10:09;;;;;;;5.97;2.10;;;;;;;;;;4994282;28;20542;-76
2023/06/02 02:12:35;;;;;;;6.22;2.10;;;;;;;;;;4994889;28;20505;-75
2023/06/02 02:15:00;;;;;;;6.65;2.50;;;;;;;;;;4991689;28;20025;-76
2023/06/02 02:17:26;;;;;;;9.32;2.50;;;;;;;;;;4992050;28;20032;-76
2023/06/02 02:19:55;;;;;;;6.40;1.95;;;;;;;;;;4983441;28;20037;-76
2023/06/02 02:22:22;;;;;;;7.07;2.22;;;;;;;;;;4967991;28;20494;-79
2023/06/02 02:24:48;;;;;;;7.60;1.98;;;;;;;;;;4977198;28;20118;-79
2023/06/02 02:27:13;;;;;;;6.20;1.85;;;;;;;;;;4972467;28;20116;-79
2023/06/02 02:29:39;;;;;;;5.70;1.70;;;;;;;;;;4969879;28;20065;-79
2023/06/02 02:32:05;;;;;;;5.88;1.92;;;;;;;;;;4970193;28;20026;-79
2023/06/02 02:34:32;;;;;;;5.47;2.20;;;;;;;;;;4990332;28;20033;-79
2023/06/02 02:37:01;;;;;;;7.95;2.22;;;;;;;;;;4988161;28;20018;-79
2023/06/02 02:39:28;;;;;;;8.68;2.28;;;;;;;;;;4987948;28;20151;-79
2023/06/02 02:41:53;;;;;;;6.97;1.92;;;;;;;;;;4967776;28;20028;-78
2023/06/02 02:44:19;;;;;;;7.47;2.00;;;;;;;;;;4989276;28;20025;-78
2023/06/02 02:46:44;;;;;;;4.78;2.00;;;;;;;;;;4973469;28;20022;-79
2023/06/02 02:49:10;;;;;;;5.28;1.90;;;;;;;;;;4971669;28;20026;-78
2023/06/02 02:51:36;;;;;;;6.72;1.75;;;;;;;;;;4976905;28;20490;-79
2023/06/02 02:54:03;;;;;;;8.63;2.55;;;;;;;;;;4969790;28;20432;-79
2023/06/02 02:56:28;;;;;;;7.25;2.45;;;;;;;;;;4990630;28;20475;-79
2023/06/02 02:58:56;;;;;;;6.05;2.00;;;;;;;;;;4991256;28;20030;-78
2023/06/02 03:01:22;;;;;;;3.83;1.77;;;;;;;;;;4991086;28;20053;-76
2023/06/02 03:03:49;;;;;;;5.60;1.95;;;;;;;;;;4969401;28;20509;-76
2023/06/02 03:06:18;;;;;;;5.60;1.75;;;;;;;;;;4971971;28;20022;-76
2023/06/02 03:08:46;;;;;;;7.05;1.90;;;;;;;;;;4994738;28;20076;-75
2023/06/02 03:11:13;;;;;;;5.13;1.83;;;;;;;;;;4995279;28;20030;-76
2023/06/02 03:13:38;;;;;;;6.65;1.92;;;;;;;;;;4991008;28;20096;-76
2023/06/02 03:16:04;;;;;;;5.45;1.75;;;;;;;;;;4972618;28;20034;-77
2023/06/02 03:18:30;;;;;;;5.05;1.55;;;;;;;;;;4974032;28;20082;-76
2023/06/02 03:20:58;;;;;;;6.53;2.30;;;;;;;;;;4974420;28;20018;-76
2023/06/02 03:23:25;;;;;;;7.38;1.80;;;;;;;;;;4971227;28;20027;-76
2023/06/02 03:25:51;;;;;;;6.45;1.92;;;;;;;;;;4975102;28;20026;-76
2023/06/02 03:28:17;;;;;;;6.70;2.22;;;;;;;;;;4968671;28;20027;-76
2023/06/02 03:30:42;;;;;;;5.70;1.90;;;;;;;;;;4978040;28;20023;-76
2023/06/02 03:33:07;;;;;;;6.05;1.80;;;;;;;;;;4991722;28;20046;-76
2023/06/02 03:35:33;;;;;;;5.43;1.60;;;;;;;;;;4985728;28;20042;-77
2023/06/02 03:37:58;;;;;;;3.47;1.63;;;;;;;;;;4990241;28;20022;-76
2023/06/02 03:40:23;;;;;;;5.95;1.95;;;;;;;;;;4990648;28;20022;-76
2023/06/02 03:42:49;;;;;;;5.53;1.70;;;;;;;;;;4969611;28;20090;-76
2023/06/02 03:45:14;;;;;;;7.72;1.60;;;;;;;;;;4989845;28;20049;-76
2023/06/02 03:47:40;;;;;;;11.80;1.70;;;;;;;;;;4972871;28;20030;-76
2023/06/02 03:50:05;;;;;;;4.10;1.65;;;;;;;;;;4973963;28;20162;-76
2023/06/02 03:52:31;;;;;;;5.85;1.77;;;;;;;;;;4968845;28;20023;-76
2023/06/02 03:54:57;;;;;;;4.50;1.55;;;;;;;;;;4973967;28;20498;-76
2023/06/02 03:57:22;;;;;;;6.20;1.80;;;;;;;;;;4972428;28;20483;-76
2023/06/02 03:59:48;;;;;;;3.83;1.40;;;;;;;;;;4973147;28;20112;-76
2023/06/02 04:02:13;;;;;;;4.45;1.48;;;;;;;;;;4971351;28;20402;-78
2023/06/02 04:04:40;;;;;;;6.05;1.77;;;;;;;;;;4992162;28;20109;-79
2023/06/02 04:07:05;;;;;;;3.10;1.40;;;;;;;;;;4995140;28;20085;-79
2023/06/02 04:09:31;;;;;;;6.18;1.55;;;;;;;;;;4994558;28;20426;-79
2023/06/02 04:11:56;;;;;;;6.40;1.63;;;;;;;;;;4971135;28;20034;-79
2023/06/02 04:14:21;;;;;;;6.18;1.63;;;;;;;;;;4997461;28;20026;-79
2023/06/02 04:16:47;;;;;;;6.00;1.60;;;;;;;;;;4980717;28;20471;-79
2023/06/02 04:19:12;;;;;;;5.82;1.60;;;;;;;;;;4975594;28;20451;-79
2023/06/02 04:21:38;;;;;;;8.38;1.60;;;;;;;;;;4983670;28;20487;-79
2023/06/02 04:24:03;;;;;;;6.78;1.92;;;;;;;;;;4972665;28;20167;-79
2023/06/02 04:26:29;;;;;;;7.63;1.65;;;;;;;;;;5002873;28;20051;-78
2023/06/02 04:28:54;;;;;;;8.02;1.73;;;;;;;;;;4979039;28;20030;-79
2023/06/02 04:31:26;;;;;;;8.50;1.70;;;;;;;;;;4979630;28;20041;-78
2023/06/02 04:33:56;;;;;;;7.82;1.55;;;;;;;;;;4990250;28;20062;-78
2023/06/02 04:36:21;;;;;;;5.07;1.63;;;;;;;;;;4976036;28;20471;-79
2023/06/02 04:38:46;;;;;;;4.95;1.60;;;;;;;;;;4977794;28;20035;-79
2023/06/02 04:41:13;;;;;;;3.28;1.38;;;;;;;;;;4996753;28;20033;-78
2023/06/02 04:43:39;;;;;;;5.78;1.52;;;;;;;;;;4990082;28;20027;-79
2023/06/02 04:46:06;;;;;;;4.85;1.70;;;;;;;;;;4978702;28;20121;-79
2023/06/02 04:48:32;;;;;;;7.18;1.58;;;;;;;;;;4991479;28;20030;-78
2023/06/02 04:50:57;;;;;;;10.18;1.92;;;;;;;;;;4994321;28;20041;-78
2023/06/02 04:53:23;;;;;;;6.88;1.45;;;;;;;;;;4969177;28;20111;-79
2023/06/02 04:55:48;;;;;;;5.97;1.55;;;;;;;;;;4989269;28;20034;-79
2023/06/02 04:58:14;;;;;;;5.65;1.42;;;;;;;;;;4972234;28;20109;-79
2023/06/02 05:00:39;;;;;;;5.50;1.50;;;;;;;;;;4971030;28;20033;-79
2023/06/02 05:03:05;;;;;;;4.15;1.45;;;;;;;;;;4982395;28;20026;-78
2023/06/02 05:05:30;;;;;;;4.75;1.58;;;;;;;;;;4981692;28;20031;-76
2023/06/02 05:07:56;;;;;;;6.20;1.52;;;;;;;;;;4992381;28;20072;-76
2023/06/02 05:10:21;;;;;;;4.53;1.67;;;;;;;;;;4982639;28;20035;-76
2023/06/02 05:12:47;;;;;;;6.45;1.77;;;;;;;;;;4981496;28;20096;-77
2023/06/02 05:15:13;;;;;;;8.10;1.73;;;;;;;;;;4987637;28;20027;-76
2023/06/02 05:17:38;;;;;;;7.78;1.88;;;;;;;;;;4971539;28;20381;-76
2023/06/02 05:20:05;;;;;;;4.63;1.95;;;;;;;;;;4986632;28;20030;-76
2023/06/02 05:22:30;;;;;;;5.25;1.30;;;;;;;;;;4992453;28;20053;-79
2023/06/02 05:24:56;;;;;;;8.40;1.63;;;;;;;;;;4974753;28;20192;-79
2023/06/02 05:27:21;;;;;;;4.82;1.50;;;;;;;;;;4992583;28;20059;-78
2023/06/02 05:29:46;;;;;;;6.15;1.58;;;;;;;;;;4989436;28;20038;-78
2023/06/02 05:32:12;;;;;;;6.05;1.40;;;;;;;;;;4980674;28;20034;-79
2023/06/02 05:34:37;;;;;;;6.63;1.50;;;;;;;;;;4989652;28;20058;-79
2023/06/02 05:37:03;;;;;;;8.88;1.50;;;;;;;;;;4990528;28;20132;-79
2023/06/02 05:39:28;;;;;;;5.65;1.40;;;;;;;;;;4987956;28;20030;-79
2023/06/02 05:41:54;;;;;;;7.47;1.70;;;;;;;;;;4983734;28;20463;-79
2023/06/02 05:44:19;;;;;;;4.95;1.27;;;;;;;;;;4974011;28;20026;-78
2023/06/02 05:46:45;;;;;;;6.00;1.50;;;;;;;;;;4974253;28;20402;-78
2023/06/02 05:49:10;;;;;;;7.13;1.48;;;;;;;;;;4970006;28;20109;-79
2023/06/02 05:51:36;;;;;;;7.05;1.50;;;;;;;;;;4988303;28;20037;-79
2023/06/02 05:54:01;;;;;;;5.18;1.35;;;;;;;;;;4973828;28;20161;-79
2023/06/02 05:56:27;;;;;;;5.60;1.52;;;;;;;;;;4971064;28;20045;-78
2023/06/02 05:58:52;;;;;;;6.78;1.45;;;;;;;;;;4982875;28;20618;-79
2023/06/02 06:01:17;;;;;;;6.45;1.50;;;;;;;;;;4971042;28;20034;-79
2023/06/02 06:03:43;;;;;;;5.97;1.40;;;;;;;;;;4973311;28;20475;-78
2023/06/02 06:06:08;;;;;;;6.40;1.38;;;;;;;;;;4985052;28;20084;-76
2023/06/02 06:08:34;;;;;;;3.10;1.38;;;;;;;;;;4989532;28;20026;-76
2023/06/02 06:10:59;;;;;;;5.28;1.45;;;;;;;;;;4985655;28;20026;-76
2023/06/02 06:13:25;;;;;;;7.00;1.73;;;;;;;;;;4989944;28;20438;-79
2023/06/02 06:15:50;;;;;;;5.30;1.55;;;;;;;;;;4971539;28;20034;-79
2023/06/02 06:18:15;;;;;;;5.93;1.20;;;;;;;;;;4979189;28;20025;-78
2023/06/02 06:20:42;;;;;;;8.95;1.80;;;;;;;;;;4985875;28;20417;-79
2023/06/02 06:23:07;;;;;;;3.65;1.23;;;;;;;;;;4973063;28;20027;-79
2023/06/02 06:25:33;;;;;;;3.08;1.40;;;;;;;;;;4986667;28;20027;-79
2023/06/02 06:27:58;;;;;;;4.15;1.30;;;;;;;;;;4997865;28;20022;-79
2023/06/02 06:30:24;;;;;;;7.43;1.60;;;;;;;;;;4990578;28;20109;-78
2023/06/02 06:32:49;;;;;;;5.82;1.40;;;;;;;;;;4994102;28;20019;-79
2023/06/02 06:35:15;;;;;;;6.43;1.73;;;;;;;;;;4969702;28;20513;-79
2023/06/02 06:37:40;;;;;;;6.30;1.35;;;;;;;;;;4987064;28;20105;-79
2023/06/02 06:40:06;;;;;;;6.28;1.77;;;;;;;;;;4965759;28;20030;-79
2023/06/02 06:42:31;;;;;;;6.25;1.50;;;;;;;;;;4962742;28;20133;-78
2023/06/02 06:44:57;;;;;;;6.97;1.42;;;;;;;;;;4971570;28;20539;-79
2023/06/02 06:47:22;;;;;;;6.95;1.40;;;;;;;;;;4971274;28;20545;-79
2023/06/02 06:49:49;;;;;;;6.80;2.03;;;;;;;;;;4971000;28;20023;-78
2023/06/02 06:52:14;;;;;;;6.35;1.67;;;;;;;;;;4987464;28;20034;-79
2023/06/02 06:54:40;;;;;;;6.40;1.20;;;;;;;;;;4976424;28;20029;-79
2023/06/02 06:57:05;;;;;;;7.43;1.75;;;;;;;;;;4996194;28;20116;-79
2023/06/02 06:59:30;;;;;;;7.43;1.80;;;;;;;;;;4975770;28;20554;-79
2023/06/02 07:01:56;;;;;;;5.45;1.50;;;;;;;;;;4970026;28;20022;-78
2023/06/02 07:04:21;;;;;;;5.97;1.55;;;;;;;;;;4990920;28;20030;-78
2023/06/02 07:06:47;;;;;;;3.72;1.10;;;;;;;;;;4989395;28;20068;-79
2023/06/02 07:09:12;;;;;;;7.47;1.48;;;;;;;;;;4993682;28;20050;-79
2023/06/02 07:11:38;;;;;;;11.98;2.40;;;;;;;;;;4989836;28;20034;-78
2023/06/02 07:14:04;;;;;;;5.82;1.70;;;;;;;;;;4975044;28;20502;-78
2023/06/02 07:16:30;;;;;;;4.93;1.30;;;;;;;;;;4973887;28;20113;-79
2023/06/02 07:18:55;;;;;;;5.15;1.33;;;;;;;;;;4978036;28;20030;-79
2023/06/02 07:21:21;;;;;;;4.50;1.60;;;;;;;;;;4991953;28;20030;-78
2023/06/02 07:23:46;;;;;;;7.95;1.70;;;;;;;;;;5004541;28;20061;-78
2023/06/02 07:26:11;;;;;;;7.93;1.83;;;;;;;;;;4991221;28;20038;-79
2023/06/02 07:28:38;;;;;;;6.60;1.42;;;;;;;;;;4973469;28;20117;-79
2023/06/02 07:31:04;;;;;;;4.20;1.50;;;;;;;;;;4989657;28;20026;-75
2023/06/02 07:33:29;;;;;;;9.02;1.70;;;;;;;;;;4963542;28;20474;-76
2023/06/02 07:35:54;;;;;;;7.75;1.48;;;;;;;;;;4970513;28;20395;-75
2023/06/02 07:38:20;;;;;;;6.25;1.70;;;;;;;;;;4993174;28;20543;-76
2023/06/02 07:40:45;;;;;;;7.35;1.48;;;;;;;;;;4972544;28;20085;-75
2023/06/02 07:43:11;;;;;;;6.00;1.38;;;;;;;;;;4993605;28;20037;-76
2023/06/02 07:45:36;;;;;;;4.28;1.25;;;;;;;;;;4973671;28;20120;-76
2023/06/02 07:48:02;;;;;;;4.43;1.20;;;;;;;;;;4974128;28;20490;-76
2023/06/02 07:50:27;;;;;;;8.27;1.80;;;;;;;;;;4973235;28;20109;-78
2023/06/02 07:52:54;;;;;;;4.72;1.67;;;;;;;;;;4988536;28;20485;-79
2023/06/02 07:55:20;;;;;;;6.82;1.60;;;;;;;;;;4972752;28;20045;-78
2023/06/02 07:57:46;;;;;;;6.68;1.50;;;;;;;;;;4994929;28;20054;-78
2023/06/02 08:00:16;;;;;;;11.90;1.55;;;;;;;;;;4973071;28;20177;-79
2023/06/02 08:02:43;;;;;;;4.65;1.27;;;;;;;;;;4983204;28;20475;-78
2023/06/02 08:05:10;;;;;;;5.07;1.33;;;;;;;;;;4972755;28;20037;-76
2023/06/02 08:07:35;;;;;;;5.70;1.45;;;;;;;;;;4990361;28;20090;-79
2023/06/02 08:10:01;;;;;;;6.97;1.42;;;;;;;;;;4975922;28;20042;-79
2023/06/02 08:12:27;;;;;;;6.85;1.60;;;;;;;;;;4990595;28;20026;-79
2023/06/02 08:14:53;;;;;;;6.40;1.50;;;;;;;;;;4991045;28;20755;-79
2023/06/02 08:17:18;;;;;;;5.57;1.23;;;;;;;;;;4989934;28;20422;-79
2023/06/02 08:19:43;;;;;;;6.93;1.60;;;;;;;;;;4975038;28;20482;-78
2023/06/02 08:22:09;;;;;;;10.73;2.08;;;;;;;;;;4972258;28;20026;-79
2023/06/02 08:24:36;;;;;;;6.40;1.60;;;;;;;;;;4988536;28;20125;-78
2023/06/02 08:27:03;;;;;;;7.18;1.80;;;;;;;;;;4988580;28;20491;-78
2023/06/02 08:29:30;;;;;;;8.48;1.52;;;;;;;;;;4976019;28;20037;-78
2023/06/02 08:31:55;;;;;;;5.68;1.20;;;;;;;;;;4986173;28;20506;-78
2023/06/02 08:34:21;;;;;;;8.10;2.45;;;;;;;;;;4973935;28;20080;-78
2023/06/02 08:36:56;;;;;;;5.78;1.63;;;;;;;;;;4985819;28;20030;-78
2023/06/02 08:39:25;;;;;;;7.28;1.52;;;;;;;;;;4988134;28;20066;-78
2023/06/02 08:41:51;;;;;;;3.78;1.33;;;;;;;;;;4965693;28;20054;-78
2023/06/02 08:44:17;;;;;;;9.60;2.20;;;;;;;;;;4987503;28;20072;-77
2023/06/02 08:46:47;;;;;;;5.75;1.45;;;;;;;;;;4969038;28;20038;-78
2023/06/02 08:49:17;;;;;;;7.38;1.52;;;;;;;;;;4991858;28;20502;-78
2023/06/02 08:51:44;;;;;;;6.25;1.50;;;;;;;;;;4974795;28;20677;-78
2023/06/02 08:54:13;;;;;;;7.97;1.67;;;;;;;;;;4980092;28;20568;-77
2023/06/02 08:56:40;;;;;;;4.20;1.45;;;;;;;;;;4977982;28;20483;-78
2023/06/02 08:59:05;;;;;;;4.63;1.30;;;;;;;;;;4975070;28;20092;-78
2023/06/02 09:01:31;;;;;;;8.20;1.80;;;;;;;;;;4973896;28;20034;-78
2023/06/02 09:03:57;;;;;;;5.97;1.60;;;;;;;;;;4969639;28;20026;-78
2023/06/02 09:06:25;;;;;;;7.13;1.38;;;;;;;;;;4991685;28;20299;-78
2023/06/02 09:08:56;;;;;;;7.70;1.60;;;;;;;;;;4992736;28;20108;-78
2023/06/02 09:11:22;;;;;;;4.90;2.00;;;;;;;;;;4967994;28;20066;-78
2023/06/02 09:13:47;;;;;;;5.95;1.55;;;;;;;;;;4984836;28;20487;-77
2023/06/02 09:16:13;;;;;;;5.97;1.60;;;;;;;;;;4997241;28;20053;-78
2023/06/02 09:18:38;;;;;;;5.72;1.50;;;;;;;;;;4988556;28;20162;-78
2023/06/02 09:21:03;;;;;;;6.90;2.20;;;;;;;;;;4969647;28;20045;-78
2023/06/02 09:23:43;;;;;;;8.25;1.95;;;;;;;;;;4994411;28;20101;-78
2023/06/02 09:26:22;;;;;;;8.43;1.67;;;;;;;;;;4988512;28;20517;-78
2023/06/02 09:29:12;;;;;;;5.40;1.70;;;;;;;;;;4988764;28;20082;-78
2023/06/02 09:31:54;;;;;;;8.55;1.80;;;;;;;;;;4976185;28;20030;-78
2023/06/02 09:34:21;;;;;;;8.43;1.83;;;;;;;;;;4986135;28;20077;-78
2023/06/02 09:36:49;;;;;;;6.95;1.70;;;;;;;;;;4989471;28;20030;-78
2023/06/02 09:39:14;;;;;;;8.27;2.17;;;;;;;;;;4971120;28;20031;-78
2023/06/02 09:41:40;;;;;;;4.60;1.70;;;;;;;;;;4997251;28;20142;-78
2023/06/02 09:44:11;;;;;;;9.35;1.98;;;;;;;;;;4996704;28;20033;-78
2023/06/02 09:46:41;;;;;;;7.95;2.35;;;;;;;;;;4993983;28;20029;-77
2023/06/02 09:49:07;;;;;;;6.28;1.70;;;;;;;;;;4974453;28;20398;-78
2023/06/02 09:51:33;;;;;;;10.07;2.20;;;;;;;;;;4990992;28;20022;-78
2023/06/02 09:53:59;;;;;;;9.50;2.03;;;;;;;;;;4986357;28;20507;-78
2023/06/02 09:56:27;;;;;;;8.55;1.90;;;;;;;;;;4993741;28;20109;-78
2023/06/02 09:58:54;;;;;;;9.90;2.40;;;;;;;;;;4971711;28;20034;-78
2023/06/02 10:01:20;;;;;;;7.07;2.20;;;;;;;;;;4989662;28;20022;-78
2023/06/02 10:03:45;;;;;;;10.05;2.28;;;;;;;;;;4978585;28;20395;-77
2023/06/02 10:06:44;;;;;;;5.50;1.83;;;;;;;;;;4982735;28;20085;-78
2023/06/02 10:09:38;;;;;;;5.45;1.70;;;;;;;;;;4984703;28;20720;-78
2023/06/02 10:12:25;;;;;;;6.80;2.05;;;;;;;;;;4983881;28;20498;-79
2023/06/02 10:14:53;;;;;;;7.95;2.83;;;;;;;;;;4986243;28;20027;-78
2023/06/02 10:17:38;;;;;;;8.52;2.20;;;;;;;;;;4987868;28;20471;-78
2023/06/02 10:20:18;;;;;;;7.18;2.35;;;;;;;;;;4936405;28;20039;-79
2023/06/02 10:23:09;;;;;;;7.03;1.95;;;;;;;;;;4974112;28;20049;-79
2023/06/02 10:25:56;;;;;;;6.57;2.03;;;;;;;;;;4985960;28;20375;-79
2023/06/02 10:28:22;;;;;;;7.90;2.17;;;;;;;;;;4971719;28;20048;-78
2023/06/02 10:30:47;;;;;;;6.45;2.00;;;;;;;;;;4976199;28;20023;-79
2023/06/02 10:33:13;;;;;;;5.45;2.17;;;;;;;;;;4987114;28;20031;-79
2023/06/02 10:35:58;;;;;;;8.45;2.25;;;;;;;;;;4976996;28;20026;-77
2023/06/02 10:38:25;;;;;;;9.48;1.95;;;;;;;;;;4990821;28;20029;-77
2023/06/02 10:40:52;;;;;;;10.52;2.55;;;;;;;;;;4971401;28;20023;-77
2023/06/02 10:43:17;;;;;;;9.75;2.30;;;;;;;;;;4982854;28;20029;-77
2023/06/02 10:45:43;;;;;;;10.02;2.25;;;;;;;;;;4991451;28;20084;-77
2023/06/02 10:48:37;;;;;;;6.57;2.10;;;;;;;;;;4971537;28;20482;-77
2023/06/02 10:51:03;;;;;;;4.85;1.92;;;;;;;;;;4971316;28;20443;-77
2023/06/02 10:53:28;;;;;;;9.95;2.28;;;;;;;;;;4989746;28;20029;-78
2023/06/02 10:55:55;;;;;;;6.03;1.65;;;;;;;;;;4975767;28;20471;-77
2023/06/02 10:58:21;;;;;;;8.40;2.58;;;;;;;;;;4991929;28;21438;-77
2023/06/02 11:00:49;;;;;;;8.40;2.15;;;;;;;;;;4969981;28;20041;-77
2023/06/02 11:03:15;;;;;;;6.30;2.38;;;;;;;;;;4975145;28;20034;-77
2023/06/02 11:05:41;;;;;;;10.48;2.60;;;;;;;;;;4971957;28;20034;-77
2023/06/02 11:08:10;;;;;;;7.65;2.30;;;;;;;;;;4970944;28;20490;-77
2023/06/02 11:10:43;;;;;;;5.53;2.10;;;;;;;;;;4986893;28;20113;-77
2023/06/02 11:13:10;;;;;;;8.57;2.70;;;;;;;;;;4981409;28;20121;-77
2023/06/02 11:15:35;;;;;;;9.35;2.17;;;;;;;;;;4989207;28;20038;-77
2023/06/02 11:18:21;;;;;;;8.93;2.55;;;;;;;;;;4993092;28;20485;-77
2023/06/02 11:20:46;;;;;;;8.13;2.60;;;;;;;;;;4990961;28;20038;-76
2023/06/02 11:23:12;;;;;;;10.20;2.58;;;;;;;;;;4992746;28;21152;-76
2023/06/02 11:25:37;;;;;;;7.40;2.60;;;;;;;;;;4992659;28;20028;-77
2023/06/02 11:28:03;;;;;;;8.23;2.55;;;;;;;;;;4992495;28;20109;-77
2023/06/02 11:30:28;;;;;;;8.20;3.15;;;;;;;;;;4977391;28;20049;-77
2023/06/02 11:32:54;;;;;;;7.47;2.60;;;;;;;;;;4989877;28;20680;-77
2023/06/02 11:35:23;;;;;;;10.05;2.80;;;;;;;;;;4970703;28;20030;-77
2023/06/02 11:38:04;;;;;;;8.60;2.80;;;;;;;;;;4990490;28;20030;-77
2023/06/02 11:40:31;;;;;;;7.35;2.30;;;;;;;;;;4973277;28;20026;-77
2023/06/02 11:42:56;;;;;;;8.30;2.65;;;;;;;;;;4988841;28;20029;-77
2023/06/02 11:45:26;;;;;;;7.25;2.53;;;;;;;;;;4970967;28;20060;-78
2023/06/02 11:48:05;;;;;;;6.15;2.42;;;;;;;;;;4973421;28;20026;-77
2023/06/02 11:50:31;;;;;;;8.00;2.70;;;;;;;;;;4986912;28;20027;-77
2023/06/02 11:52:57;;;;;;;6.50;2.90;;;;;;;;;;4988104;28;20023;-77
2023/06/02 11:55:32;;;;;;;7.20;2.53;;;;;;;;;;4971822;28;21912;-77
2023/06/02 11:58:23;;;;;;;12.57;2.80;;;;;;;;;;4987331;28;20030;-77
2023/06/02 12:00:50;;;;;;;10.07;3.05;;;;;;;;;;4987101;28;20406;-77
2023/06/02 12:03:15;;;;;;;6.22;2.85;;;;;;;;;;4984951;28;20113;-77
2023/06/02 12:05:45;;;;;;;9.10;3.10;;;;;;;;;;4971156;28;20141;-77
2023/06/02 12:08:15;;;;;;;9.77;3.10;;;;;;;;;;4971838;28;20044;-77
2023/06/02 12:10:42;;;;;;;7.97;2.92;;;;;;;;;;4979687;28;20185;-77
2023/06/02 12:13:07;;;;;;;10.35;3.30;;;;;;;;;;4966544;28;20501;-78
2023/06/02 12:15:34;;;;;;;6.50;2.80;;;;;;;;;;4968837;28;20078;-77
2023/06/02 12:18:01;;;;;;;8.30;3.05;;;;;;;;;;4975782;28;20383;-78
2023/06/02 12:20:40;;;;;;;7.40;3.00;;;;;;;;;;4968427;28;20073;-78
2023/06/02 12:23:09;;;;;;;11.00;3.20;;;;;;;;;;4971581;28;20027;-79
2023/06/02 12:25:35;;;;;;;7.88;3.20;;;;;;;;;;4993342;28;20026;-79
2023/06/02 12:28:13;;;;;;;10.73;3.40;;;;;;;;;;4971448;28;20084;-79
2023/06/02 12:30:40;;;;;;;8.43;3.00;;;;;;;;;;4990586;28;20097;-78
2023/06/02 12:33:10;;;;;;;8.90;3.42;;;;;;;;;;4998522;28;20034;-78
2023/06/02 12:35:39;;;;;;;10.23;3.30;;;;;;;;;;4974448;28;20023;-78
2023/06/02 12:38:06;;;;;;;13.18;3.60;;;;;;;;;;4999141;28;20034;-78
2023/06/02 12:40:32;;;;;;;8.95;2.95;;;;;;;;;;4976843;28;20340;-79
2023/06/02 12:42:59;;;;;;;7.30;3.05;;;;;;;;;;4993722;28;20116;-79
2023/06/02 12:45:24;;;;;;;6.80;3.42;;;;;;;;;;4976460;28;20037;-78
2023/06/02 12:47:52;;;;;;;10.57;3.00;;;;;;;;;;4998518;28;20379;-78
2023/06/02 12:50:19;;;;;;;9.45;2.55;;;;;;;;;;4968464;28;20058;-78
2023/06/02 12:52:44;;;;;;;7.97;3.25;;;;;;;;;;4977178;28;20057;-79
2023/06/02 12:55:10;;;;;;;8.15;3.25;;;;;;;;;;4994360;28;20058;-78
2023/06/02 12:57:35;;;;;;;8.65;3.53;;;;;;;;;;4976347;28;20108;-79
2023/06/02 13:00:01;;;;;;;9.25;3.50;;;;;;;;;;4994413;28;20108;-78
2023/06/02 13:02:26;;;;;;;8.60;3.17;;;;;;;;;;4977025;28;20026;-78
2023/06/02 13:04:51;;;;;;;6.63;3.58;;;;;;;;;;4993962;28;20164;-78
2023/06/02 13:07:17;;;;;;;9.45;3.13;;;;;;;;;;4980266;28;20057;-79
2023/06/02 13:09:42;;;;;;;6.97;3.13;;;;;;;;;;4983527;28;20049;-78
2023/06/02 13:12:08;;;;;;;10.98;3.63;;;;;;;;;;4994632;28;20390;-78
2023/06/02 13:14:34;;;;;;;7.13;2.85;;;;;;;;;;4994431;28;20093;-78
2023/06/02 13:17:00;;;;;;;9.57;3.65;;;;;;;;;;4993584;28;20041;-78
2023/06/02 13:19:25;;;;;;;10.02;3.80;;;;;;;;;;4978366;28;20198;-78
2023/06/02 13:21:50;;;;;;;9.25;3.08;;;;;;;;;;4974100;28;20121;-78
2023/06/02 13:24:16;;;;;;;8.60;3.05;;;;;;;;;;4974474;28;20402;-78
2023/06/02 13:26:42;;;;;;;10.77;2.70;;;;;;;;;;4977929;28;20030;-78
2023/06/02 13:29:08;;;;;;;8.90;3.38;;;;;;;;;;4976580;28;20552;-78
2023/06/02 13:31:33;;;;;;;8.23;3.00;;;;;;;;;;4982238;28;20077;-78
2023/06/02 13:33:59;;;;;;;10.20;2.80;;;;;;;;;;4971627;28;20026;-78
2023/06/02 13:36:24;;;;;;;7.32;2.60;;;;;;;;;;4991530;28;20034;-79
2023/06/02 13:38:49;;;;;;;7.85;2.72;;;;;;;;;;4979643;28;20025;-78
2023/06/02 13:41:15;;;;;;;9.52;3.10;;;;;;;;;;4994548;28;20120;-78
2023/06/02 13:43:41;;;;;;;12.38;3.50;;;;;;;;;;4978623;28;20368;-78
2023/06/02 13:46:06;;;;;;;9.60;3.20;;;;;;;;;;4975306;28;20402;-78
2023/06/02 13:48:33;;;;;;;9.48;3.00;;;;;;;;;;4975163;28;20505;-78
2023/06/02 13:50:59;;;;;;;12.63;3.63;;;;;;;;;;4988983;28;20026;-77
2023/06/02 13:53:26;;;;;;;8.38;3.33;;;;;;;;;;5003351;28;20025;-78
2023/06/02 13:55:51;;;;;;;7.75;2.83;;;;;;;;;;4975393;28;20471;-77
2023/06/02 13:58:17;;;;;;;8.50;2.90;;;;;;;;;;4993294;28;20037;-77
2023/06/02 14:00:42;;;;;;;9.65;2.80;;;;;;;;;;4975364;28;20391;-77
2023/06/02 14:03:07;;;;;;;6.35;2.92;;;;;;;;;;4995179;28;20053;-77
2023/06/02 14:05:34;;;;;;;9.05;3.10;;;;;;;;;;4993592;28;20038;-77
2023/06/02 14:08:00;;;;;;;6.70;2.85;;;;;;;;;;4992017;28;20018;-78
2023/06/02 14:10:26;;;;;;;7.30;2.50;;;;;;;;;;4982201;28;20160;-77
2023/06/02 14:12:52;;;;;;;8.32;3.35;;;;;;;;;;4978179;28;20113;-77
2023/06/02 14:15:17;;;;;;;7.97;3.35;;;;;;;;;;4996354;28;20026;-77
2023/06/02 14:17:42;;;;;;;11.85;3.70;;;;;;;;;;4974839;28;20138;-77
2023/06/02 14:20:08;;;;;;;9.80;3.15;;;;;;;;;;4995382;28;20026;-77
2023/06/02 14:22:34;;;;;;;10.35;2.85;;;;;;;;;;4985468;28;20475;-77
2023/06/02 14:24:59;;;;;;;7.63;3.08;;;;;;;;;;4992600;28;20043;-78
2023/06/02 14:27:24;;;;;;;6.00;2.80;;;;;;;;;;4993896;28;20037;-77
2023/06/02 14:29:50;;;;;;;8.50;2.90;;;;;;;;;;4980924;28;20038;-77
2023/06/02 14:32:15;;;;;;;9.00;3.33;;;;;;;;;;4997562;28;20085;-78
2023/06/02 14:34:41;;;;;;;6.95;3.03;;;;;;;;;;4974156;28;20022;-78
2023/06/02 14:37:06;;;;;;;8.20;3.22;;;;;;;;;;4983862;28;20034;-77
2023/06/02 14:39:32;;;;;;;6.95;2.80;;;;;;;;;;4982364;28;20029;-77
2023/06/02 14:41:57;;;;;;;6.28;2.85;;;;;;;;;;4990641;28;20076;-78
2023/06/02 14:44:22;;;;;;;7.97;2.63;;;;;;;;;;4974898;28;20395;-78